sensor_id;sensor_type;location;lat;lon;timestamp;temperature;humidity
29093;DHT22;16167;48.768;14.984;2022-09-01T00:00:44;13.40;99.90
29093;DHT22;16167;48.768;14.984;2022-09-01T00:03:15;13.40;99.90
29093;DHT22;16167;48.768;14.984;2022-09-01T00:05:44;13.30;99.90
29093;DHT22;16167;48.768;14.984;2022-09-01T00:08:16;13.30;99.90
29093;DHT22;16167;48.768;14.984;2022-09-01T00:10:44;13.30;99.90
29093;DHT22;16167;48.768;14.984;2022-09-01T00:13:13;13.30;99.90
29093;DHT22;16167;48.768;14.984;2022-09-01T00:15:42;13.20;99.90
29093;DHT22;16167;48.768;14.984;2022-09-01T00:18:11;13.20;99.90
29093;DHT22;16167;48.768;14.984;2022-09-01T00:20:39;13.20;99.90
29093;DHT22;16167;48.768;14.984;2022-09-01T00:23:07;13.20;99.90
29093;DHT22;16167;48.768;14.984;2022-09-01T00:25:35;13.10;99.90
29093;DHT22;16167;48.768;14.984;2022-09-01T00:28:04;13.00;99.90
29093;DHT22;16167;48.768;14.984;2022-09-01T00:30:32;13.00;99.50
29093;DHT22;16167;48.768;14.984;2022-09-01T00:33:02;12.90;99.40
29093;DHT22;16167;48.768;14.984;2022-09-01T00:35:30;12.90;99.50
29093;DHT22;16167;48.768;14.984;2022-09-01T00:38:03;12.80;99.90
29093;DHT22;16167;48.768;14.984;2022-09-01T00:40:31;12.80;99.80
29093;DHT22;16167;48.768;14.984;2022-09-01T00:43:00;12.70;99.90
29093;DHT22;16167;48.768;14.984;2022-09-01T00:45:37;12.70;99.90
29093;DHT22;16167;48.768;14.984;2022-09-01T00:48:09;12.60;99.90
29093;DHT22;16167;48.768;14.984;2022-09-01T00:50:37;12.60;99.90
29093;DHT22;16167;48.768;14.984;2022-09-01T00:53:06;12.50;99.90
29093;DHT22;16167;48.768;14.984;2022-09-01T00:55:36;12.50;99.90
29093;DHT22;16167;48.768;14.984;2022-09-01T00:58:05;12.50;99.90
29093;DHT22;16167;48.768;14.984;2022-09-01T01:00:47;12.50;99.90
29093;DHT22;16167;48.768;14.984;2022-09-01T01:03:18;12.50;99.90
29093;DHT22;16167;48.768;14.984;2022-09-01T01:05:49;12.40;99.90
29093;DHT22;16167;48.768;14.984;2022-09-01T01:08:22;12.50;99.90
29093;DHT22;16167;48.768;14.984;2022-09-01T01:11:00;12.50;99.90
29093;DHT22;16167;48.768;14.984;2022-09-01T01:13:30;12.50;99.90
29093;DHT22;16167;48.768;14.984;2022-09-01T01:16:02;12.50;99.90
29093;DHT22;16167;48.768;14.984;2022-09-01T01:18:35;12.50;99.90
29093;DHT22;16167;48.768;14.984;2022-09-01T01:21:06;12.40;99.90
29093;DHT22;16167;48.768;14.984;2022-09-01T01:24:00;12.40;99.90
29093;DHT22;16167;48.768;14.984;2022-09-01T01:26:30;12.40;99.90
29093;DHT22;16167;48.768;14.984;2022-09-01T01:28:58;12.40;99.90
29093;DHT22;16167;48.768;14.984;2022-09-01T01:31:28;12.40;99.90
29093;DHT22;16167;48.768;14.984;2022-09-01T01:33:58;12.40;99.90
29093;DHT22;16167;48.768;14.984;2022-09-01T01:36:30;12.30;99.90
29093;DHT22;16167;48.768;14.984;2022-09-01T01:39:05;12.30;99.90
29093;DHT22;16167;48.768;14.984;2022-09-01T01:41:37;12.30;99.90
29093;DHT22;16167;48.768;14.984;2022-09-01T01:44:07;12.40;99.90
29093;DHT22;16167;48.768;14.984;2022-09-01T01:46:38;12.40;99.90
29093;DHT22;16167;48.768;14.984;2022-09-01T01:49:09;12.40;99.90
29093;DHT22;16167;48.768;14.984;2022-09-01T01:51:39;12.40;99.90
29093;DHT22;16167;48.768;14.984;2022-09-01T01:54:07;12.30;99.90
29093;DHT22;16167;48.768;14.984;2022-09-01T01:56:37;12.40;99.90
29093;DHT22;16167;48.768;14.984;2022-09-01T01:59:09;12.30;99.90
29093;DHT22;16167;48.768;14.984;2022-09-01T02:01:43;12.30;99.90
29093;DHT22;16167;48.768;14.984;2022-09-01T02:04:15;12.40;99.90
29093;DHT22;16167;48.768;14.984;2022-09-01T02:06:44;12.30;99.90
29093;DHT22;16167;48.768;14.984;2022-09-01T02:09:15;12.40;99.90
29093;DHT22;16167;48.768;14.984;2022-09-01T02:11:45;12.40;99.90
29093;DHT22;16167;48.768;14.984;2022-09-01T02:14:13;12.40;99.90
29093;DHT22;16167;48.768;14.984;2022-09-01T02:16:46;12.40;99.90
29093;DHT22;16167;48.768;14.984;2022-09-01T02:19:15;12.40;99.90
29093;DHT22;16167;48.768;14.984;2022-09-01T02:21:45;12.40;99.90
29093;DHT22;16167;48.768;14.984;2022-09-01T02:24:22;12.40;99.90
29093;DHT22;16167;48.768;14.984;2022-09-01T02:26:53;12.40;99.90
29093;DHT22;16167;48.768;14.984;2022-09-01T02:29:21;12.40;99.90
29093;DHT22;16167;48.768;14.984;2022-09-01T02:31:55;12.40;99.90
29093;DHT22;16167;48.768;14.984;2022-09-01T02:34:25;12.40;99.90
29093;DHT22;16167;48.768;14.984;2022-09-01T02:36:55;12.40;99.90
29093;DHT22;16167;48.768;14.984;2022-09-01T02:39:26;12.40;99.90
29093;DHT22;16167;48.768;14.984;2022-09-01T02:41:56;12.40;99.90
29093;DHT22;16167;48.768;14.984;2022-09-01T02:44:27;12.40;99.90
29093;DHT22;16167;48.768;14.984;2022-09-01T02:46:56;12.40;99.90
29093;DHT22;16167;48.768;14.984;2022-09-01T02:49:26;12.40;99.90
29093;DHT22;16167;48.768;14.984;2022-09-01T02:51:57;12.40;99.90
29093;DHT22;16167;48.768;14.984;2022-09-01T02:54:29;12.40;99.90
29093;DHT22;16167;48.768;14.984;2022-09-01T02:56:59;12.40;99.90
29093;DHT22;16167;48.768;14.984;2022-09-01T02:59:28;12.40;99.90
29093;DHT22;16167;48.768;14.984;2022-09-01T03:01:57;12.40;99.90
29093;DHT22;16167;48.768;14.984;2022-09-01T03:04:25;12.30;99.90
29093;DHT22;16167;48.768;14.984;2022-09-01T03:06:54;12.30;99.90
29093;DHT22;16167;48.768;14.984;2022-09-01T03:09:24;12.30;99.90
29093;DHT22;16167;48.768;14.984;2022-09-01T03:11:54;12.20;99.90
29093;DHT22;16167;48.768;14.984;2022-09-01T03:14:24;12.30;99.90
29093;DHT22;16167;48.768;14.984;2022-09-01T03:16:52;12.20;99.90
29093;DHT22;16167;48.768;14.984;2022-09-01T03:19:22;12.20;99.90
29093;DHT22;16167;48.768;14.984;2022-09-01T03:21:50;12.20;99.90
29093;DHT22;16167;48.768;14.984;2022-09-01T03:24:18;12.20;99.90
29093;DHT22;16167;48.768;14.984;2022-09-01T03:26:49;12.20;99.90
29093;DHT22;16167;48.768;14.984;2022-09-01T03:29:17;12.20;99.90
29093;DHT22;16167;48.768;14.984;2022-09-01T03:31:47;12.20;99.90
29093;DHT22;16167;48.768;14.984;2022-09-01T03:34:15;12.20;99.90
29093;DHT22;16167;48.768;14.984;2022-09-01T03:36:51;12.20;99.90
29093;DHT22;16167;48.768;14.984;2022-09-01T03:39:20;12.20;99.90
29093;DHT22;16167;48.768;14.984;2022-09-01T03:41:48;12.10;99.90
29093;DHT22;16167;48.768;14.984;2022-09-01T03:44:16;12.20;99.90
29093;DHT22;16167;48.768;14.984;2022-09-01T03:46:44;12.10;99.90
29093;DHT22;16167;48.768;14.984;2022-09-01T03:49:14;12.10;99.90
29093;DHT22;16167;48.768;14.984;2022-09-01T03:51:43;12.10;99.90
29093;DHT22;16167;48.768;14.984;2022-09-01T03:54:11;12.10;99.90
29093;DHT22;16167;48.768;14.984;2022-09-01T03:56:40;12.10;99.90
29093;DHT22;16167;48.768;14.984;2022-09-01T03:59:09;12.00;99.90
29093;DHT22;16167;48.768;14.984;2022-09-01T04:01:43;12.10;99.90
29093;DHT22;16167;48.768;14.984;2022-09-01T04:04:13;12.10;99.90
29093;DHT22;16167;48.768;14.984;2022-09-01T04:06:43;12.00;99.90
29093;DHT22;16167;48.768;14.984;2022-09-01T04:09:12;12.10;99.90
29093;DHT22;16167;48.768;14.984;2022-09-01T04:11:40;12.00;99.90
29093;DHT22;16167;48.768;14.984;2022-09-01T04:14:12;12.10;99.90
29093;DHT22;16167;48.768;14.984;2022-09-01T04:16:42;12.00;99.90
29093;DHT22;16167;48.768;14.984;2022-09-01T04:19:33;12.00;99.90
29093;DHT22;16167;48.768;14.984;2022-09-01T04:22:02;12.10;99.90
29093;DHT22;16167;48.768;14.984;2022-09-01T04:24:32;12.00;99.90
29093;DHT22;16167;48.768;14.984;2022-09-01T04:27:01;12.00;99.90
29093;DHT22;16167;48.768;14.984;2022-09-01T04:29:30;12.00;99.90
29093;DHT22;16167;48.768;14.984;2022-09-01T04:32:01;12.00;99.90
29093;DHT22;16167;48.768;14.984;2022-09-01T04:34:34;12.00;99.90
29093;DHT22;16167;48.768;14.984;2022-09-01T04:37:07;12.00;99.90
29093;DHT22;16167;48.768;14.984;2022-09-01T04:39:36;11.90;99.90
29093;DHT22;16167;48.768;14.984;2022-09-01T04:42:05;11.90;99.90
29093;DHT22;16167;48.768;14.984;2022-09-01T04:44:35;11.90;99.90
29093;DHT22;16167;48.768;14.984;2022-09-01T04:47:03;11.90;99.90
29093;DHT22;16167;48.768;14.984;2022-09-01T04:49:42;11.90;99.90
29093;DHT22;16167;48.768;14.984;2022-09-01T04:52:12;11.90;99.90
29093;DHT22;16167;48.768;14.984;2022-09-01T04:54:40;11.90;99.90
29093;DHT22;16167;48.768;14.984;2022-09-01T04:57:10;11.90;99.90
29093;DHT22;16167;48.768;14.984;2022-09-01T04:59:39;11.90;99.90
29093;DHT22;16167;48.768;14.984;2022-09-01T05:02:08;11.90;99.90
29093;DHT22;16167;48.768;14.984;2022-09-01T05:04:36;11.90;99.90
29093;DHT22;16167;48.768;14.984;2022-09-01T05:07:12;12.00;99.90
29093;DHT22;16167;48.768;14.984;2022-09-01T05:09:41;12.00;99.90
29093;DHT22;16167;48.768;14.984;2022-09-01T05:12:10;12.00;99.90
29093;DHT22;16167;48.768;14.984;2022-09-01T05:14:44;12.00;99.90
29093;DHT22;16167;48.768;14.984;2022-09-01T05:17:14;12.00;99.90
29093;DHT22;16167;48.768;14.984;2022-09-01T05:19:45;12.10;99.90
29093;DHT22;16167;48.768;14.984;2022-09-01T05:22:16;12.00;99.90
29093;DHT22;16167;48.768;14.984;2022-09-01T05:24:48;12.10;99.90
29093;DHT22;16167;48.768;14.984;2022-09-01T05:27:21;12.10;99.90
29093;DHT22;16167;48.768;14.984;2022-09-01T05:29:49;12.10;99.90
29093;DHT22;16167;48.768;14.984;2022-09-01T05:32:17;12.10;99.90
29093;DHT22;16167;48.768;14.984;2022-09-01T05:34:47;12.10;99.90
29093;DHT22;16167;48.768;14.984;2022-09-01T05:37:17;12.10;98.90
29093;DHT22;16167;48.768;14.984;2022-09-01T05:39:47;12.10;99.90
29093;DHT22;16167;48.768;14.984;2022-09-01T05:42:16;12.00;99.90
29093;DHT22;16167;48.768;14.984;2022-09-01T05:44:44;12.10;99.90
29093;DHT22;16167;48.768;14.984;2022-09-01T05:47:17;12.10;99.90
29093;DHT22;16167;48.768;14.984;2022-09-01T05:49:49;12.20;99.90
29093;DHT22;16167;48.768;14.984;2022-09-01T05:52:20;12.30;99.90
29093;DHT22;16167;48.768;14.984;2022-09-01T05:54:52;12.30;99.90
29093;DHT22;16167;48.768;14.984;2022-09-01T05:57:21;12.40;99.90
29093;DHT22;16167;48.768;14.984;2022-09-01T06:00:05;12.50;99.90
29093;DHT22;16167;48.768;14.984;2022-09-01T06:02:40;12.60;99.00
29093;DHT22;16167;48.768;14.984;2022-09-01T06:05:09;12.60;98.60
29093;DHT22;16167;48.768;14.984;2022-09-01T06:07:38;12.60;98.30
29093;DHT22;16167;48.768;14.984;2022-09-01T06:10:09;12.70;98.70
29093;DHT22;16167;48.768;14.984;2022-09-01T06:12:38;12.80;99.10
29093;DHT22;16167;48.768;14.984;2022-09-01T06:15:09;12.90;96.80
29093;DHT22;16167;48.768;14.984;2022-09-01T06:17:42;13.00;93.10
29093;DHT22;16167;48.768;14.984;2022-09-01T06:20:12;13.00;93.30
29093;DHT22;16167;48.768;14.984;2022-09-01T06:22:45;13.00;92.50
29093;DHT22;16167;48.768;14.984;2022-09-01T06:25:13;13.00;95.20
29093;DHT22;16167;48.768;14.984;2022-09-01T06:27:45;13.00;94.60
29093;DHT22;16167;48.768;14.984;2022-09-01T06:30:15;13.00;93.20
29093;DHT22;16167;48.768;14.984;2022-09-01T06:32:50;13.00;94.50
29093;DHT22;16167;48.768;14.984;2022-09-01T06:35:19;13.00;84.90
29093;DHT22;16167;48.768;14.984;2022-09-01T06:37:49;13.00;93.80
29093;DHT22;16167;48.768;14.984;2022-09-01T06:40:18;13.10;95.60
29093;DHT22;16167;48.768;14.984;2022-09-01T06:42:48;13.30;90.00
29093;DHT22;16167;48.768;14.984;2022-09-01T06:45:18;13.40;89.40
29093;DHT22;16167;48.768;14.984;2022-09-01T06:47:48;13.50;84.00
29093;DHT22;16167;48.768;14.984;2022-09-01T06:50:19;13.60;80.20
29093;DHT22;16167;48.768;14.984;2022-09-01T06:53:10;13.60;65.00
29093;DHT22;16167;48.768;14.984;2022-09-01T06:55:58;13.60;73.20
29093;DHT22;16167;48.768;14.984;2022-09-01T06:58:26;13.70;85.20
29093;DHT22;16167;48.768;14.984;2022-09-01T07:00:55;13.70;90.00
29093;DHT22;16167;48.768;14.984;2022-09-01T07:03:24;13.70;82.50
29093;DHT22;16167;48.768;14.984;2022-09-01T07:05:52;13.80;81.00
29093;DHT22;16167;48.768;14.984;2022-09-01T07:08:29;13.90;70.20
29093;DHT22;16167;48.768;14.984;2022-09-01T07:10:59;14.00;73.70
29093;DHT22;16167;48.768;14.984;2022-09-01T07:13:47;14.10;71.50
29093;DHT22;16167;48.768;14.984;2022-09-01T07:16:37;14.20;65.90
29093;DHT22;16167;48.768;14.984;2022-09-01T07:19:26;14.30;72.90
29093;DHT22;16167;48.768;14.984;2022-09-01T07:22:14;14.30;72.40
29093;DHT22;16167;48.768;14.984;2022-09-01T07:25:04;14.30;59.90
29093;DHT22;16167;48.768;14.984;2022-09-01T07:27:39;14.40;72.30
29093;DHT22;16167;48.768;14.984;2022-09-01T07:30:08;14.40;49.10
29093;DHT22;16167;48.768;14.984;2022-09-01T07:32:37;14.30;26.40
29093;DHT22;16167;48.768;14.984;2022-09-01T07:35:15;14.30;42.40
29093;DHT22;16167;48.768;14.984;2022-09-01T07:37:44;14.40;63.70
29093;DHT22;16167;48.768;14.984;2022-09-01T07:40:36;14.50;59.80
29093;DHT22;16167;48.768;14.984;2022-09-01T07:43:25;14.80;58.00
29093;DHT22;16167;48.768;14.984;2022-09-01T07:46:03;15.10;44.10
29093;DHT22;16167;48.768;14.984;2022-09-01T07:48:52;15.50;36.10
29093;DHT22;16167;48.768;14.984;2022-09-01T07:51:41;15.70;20.00
29093;DHT22;16167;48.768;14.984;2022-09-01T07:54:09;15.90;25.40
29093;DHT22;16167;48.768;14.984;2022-09-01T07:56:40;16.00;8.70
29093;DHT22;16167;48.768;14.984;2022-09-01T07:59:10;16.10;10.50
29093;DHT22;16167;48.768;14.984;2022-09-01T08:01:41;16.30;11.50
29093;DHT22;16167;48.768;14.984;2022-09-01T08:04:09;16.70;1.00
29093;DHT22;16167;48.768;14.984;2022-09-01T08:06:37;17.00;1.00
29093;DHT22;16167;48.768;14.984;2022-09-01T08:09:07;17.20;1.00
29093;DHT22;16167;48.768;14.984;2022-09-01T08:11:52;17.60;1.00
29093;DHT22;16167;48.768;14.984;2022-09-01T08:14:29;17.90;1.00
29093;DHT22;16167;48.768;14.984;2022-09-01T08:17:00;18.00;1.00
29093;DHT22;16167;48.768;14.984;2022-09-01T08:19:43;17.90;1.00
29093;DHT22;16167;48.768;14.984;2022-09-01T08:22:14;18.00;1.00
29093;DHT22;16167;48.768;14.984;2022-09-01T08:24:43;18.50;1.00
29093;DHT22;16167;48.768;14.984;2022-09-01T08:27:12;19.00;1.00
29093;DHT22;16167;48.768;14.984;2022-09-01T08:29:40;19.50;1.00
29093;DHT22;16167;48.768;14.984;2022-09-01T08:32:09;19.90;1.00
29093;DHT22;16167;48.768;14.984;2022-09-01T08:34:38;20.20;1.00
29093;DHT22;16167;48.768;14.984;2022-09-01T08:37:07;20.10;1.00
29093;DHT22;16167;48.768;14.984;2022-09-01T08:39:35;20.40;1.00
29093;DHT22;16167;48.768;14.984;2022-09-01T08:42:10;20.40;1.00
29093;DHT22;16167;48.768;14.984;2022-09-01T08:44:48;20.60;1.00
29093;DHT22;16167;48.768;14.984;2022-09-01T08:47:20;20.70;1.00
29093;DHT22;16167;48.768;14.984;2022-09-01T08:50:05;20.80;1.00
29093;DHT22;16167;48.768;14.984;2022-09-01T08:52:35;21.00;1.00
29093;DHT22;16167;48.768;14.984;2022-09-01T08:55:09;21.00;1.00
29093;DHT22;16167;48.768;14.984;2022-09-01T08:57:41;20.80;1.00
29093;DHT22;16167;48.768;14.984;2022-09-01T09:00:14;21.00;1.00
29093;DHT22;16167;48.768;14.984;2022-09-01T09:02:55;21.10;1.00
29093;DHT22;16167;48.768;14.984;2022-09-01T09:05:32;21.20;1.00
29093;DHT22;16167;48.768;14.984;2022-09-01T09:11:00;20.50;1.00
29093;DHT22;16167;48.768;14.984;2022-09-01T09:13:40;20.10;1.00
29093;DHT22;16167;48.768;14.984;2022-09-01T09:16:17;19.90;1.00
29093;DHT22;16167;48.768;14.984;2022-09-01T09:18:52;19.70;1.00
29093;DHT22;16167;48.768;14.984;2022-09-01T09:21:26;19.50;1.00
29093;DHT22;16167;48.768;14.984;2022-09-01T09:24:00;19.50;1.00
29093;DHT22;16167;48.768;14.984;2022-09-01T09:26:29;19.40;1.00
29093;DHT22;16167;48.768;14.984;2022-09-01T09:29:08;19.40;1.00
29093;DHT22;16167;48.768;14.984;2022-09-01T09:31:40;19.30;1.00
29093;DHT22;16167;48.768;14.984;2022-09-01T09:34:27;19.20;1.00
29093;DHT22;16167;48.768;14.984;2022-09-01T09:36:55;19.10;1.00
29093;DHT22;16167;48.768;14.984;2022-09-01T09:39:23;19.00;1.00
29093;DHT22;16167;48.768;14.984;2022-09-01T09:42:05;18.90;1.00
29093;DHT22;16167;48.768;14.984;2022-09-01T09:44:42;18.80;1.00
29093;DHT22;16167;48.768;14.984;2022-09-01T09:47:33;18.70;1.00
29093;DHT22;16167;48.768;14.984;2022-09-01T09:50:16;18.70;1.00
29093;DHT22;16167;48.768;14.984;2022-09-01T09:52:47;18.50;1.00
29093;DHT22;16167;48.768;14.984;2022-09-01T09:55:24;18.50;1.00
29093;DHT22;16167;48.768;14.984;2022-09-01T09:57:56;18.50;1.00
29093;DHT22;16167;48.768;14.984;2022-09-01T10:00:28;18.70;1.00
29093;DHT22;16167;48.768;14.984;2022-09-01T10:03:01;19.60;1.00
29093;DHT22;16167;48.768;14.984;2022-09-01T10:05:39;20.60;1.00
29093;DHT22;16167;48.768;14.984;2022-09-01T10:08:13;21.20;1.00
29093;DHT22;16167;48.768;14.984;2022-09-01T10:10:46;20.90;1.00
29093;DHT22;16167;48.768;14.984;2022-09-01T10:13:25;20.60;1.00
29093;DHT22;16167;48.768;14.984;2022-09-01T10:15:59;20.20;1.00
29093;DHT22;16167;48.768;14.984;2022-09-01T10:18:35;19.90;1.00
29093;DHT22;16167;48.768;14.984;2022-09-01T10:21:09;19.70;1.00
29093;DHT22;16167;48.768;14.984;2022-09-01T10:23:39;19.50;1.00
29093;DHT22;16167;48.768;14.984;2022-09-01T10:26:12;19.30;1.00
29093;DHT22;16167;48.768;14.984;2022-09-01T10:28:48;19.20;1.00
29093;DHT22;16167;48.768;14.984;2022-09-01T10:31:19;19.20;1.00
29093;DHT22;16167;48.768;14.984;2022-09-01T10:33:49;19.40;1.00
29093;DHT22;16167;48.768;14.984;2022-09-01T10:36:18;20.20;1.00
29093;DHT22;16167;48.768;14.984;2022-09-01T10:38:50;20.60;1.00
29093;DHT22;16167;48.768;14.984;2022-09-01T10:41:47;20.50;1.00
29093;DHT22;16167;48.768;14.984;2022-09-01T10:44:27;20.40;1.00
29093;DHT22;16167;48.768;14.984;2022-09-01T10:47:02;20.20;1.00
29093;DHT22;16167;48.768;14.984;2022-09-01T10:50:00;20.00;1.00
29093;DHT22;16167;48.768;14.984;2022-09-01T10:52:56;19.80;1.00
29093;DHT22;16167;48.768;14.984;2022-09-01T10:55:30;19.60;1.00
29093;DHT22;16167;48.768;14.984;2022-09-01T10:58:20;19.40;1.00
29093;DHT22;16167;48.768;14.984;2022-09-01T11:01:11;19.30;1.00
29093;DHT22;16167;48.768;14.984;2022-09-01T11:04:00;19.10;1.00
29093;DHT22;16167;48.768;14.984;2022-09-01T11:06:55;19.00;1.00
29093;DHT22;16167;48.768;14.984;2022-09-01T11:09:43;19.00;1.00
29093;DHT22;16167;48.768;14.984;2022-09-01T11:12:40;19.00;1.00
29093;DHT22;16167;48.768;14.984;2022-09-01T11:15:33;18.90;1.00
29093;DHT22;16167;48.768;14.984;2022-09-01T11:18:08;19.00;1.00
29093;DHT22;16167;48.768;14.984;2022-09-01T11:20:40;19.00;1.00
29093;DHT22;16167;48.768;14.984;2022-09-01T11:23:21;19.50;1.00
29093;DHT22;16167;48.768;14.984;2022-09-01T11:25:52;20.00;1.00
29093;DHT22;16167;48.768;14.984;2022-09-01T11:28:41;21.20;1.00
29093;DHT22;16167;48.768;14.984;2022-09-01T11:31:28;21.20;1.00
29093;DHT22;16167;48.768;14.984;2022-09-01T11:34:14;20.90;1.00
29093;DHT22;16167;48.768;14.984;2022-09-01T11:36:51;20.40;1.00
29093;DHT22;16167;48.768;14.984;2022-09-01T11:39:40;20.10;1.00
29093;DHT22;16167;48.768;14.984;2022-09-01T11:42:12;19.60;1.00
29093;DHT22;16167;48.768;14.984;2022-09-01T11:44:48;19.30;1.00
29093;DHT22;16167;48.768;14.984;2022-09-01T11:47:21;19.00;1.00
29093;DHT22;16167;48.768;14.984;2022-09-01T11:49:54;18.80;1.00
29093;DHT22;16167;48.768;14.984;2022-09-01T11:52:25;18.70;1.00
29093;DHT22;16167;48.768;14.984;2022-09-01T11:54:55;18.50;1.00
29093;DHT22;16167;48.768;14.984;2022-09-01T11:57:27;18.30;1.00
29093;DHT22;16167;48.768;14.984;2022-09-01T11:59:56;18.20;1.00
29093;DHT22;16167;48.768;14.984;2022-09-01T12:02:26;18.20;1.00
29093;DHT22;16167;48.768;14.984;2022-09-01T12:04:56;18.20;1.00
29093;DHT22;16167;48.768;14.984;2022-09-01T12:07:32;18.20;1.00
29093;DHT22;16167;48.768;14.984;2022-09-01T12:10:07;18.10;1.00
29093;DHT22;16167;48.768;14.984;2022-09-01T12:12:39;18.20;1.00
29093;DHT22;16167;48.768;14.984;2022-09-01T12:15:10;18.10;1.00
29093;DHT22;16167;48.768;14.984;2022-09-01T12:17:45;18.20;1.00
29093;DHT22;16167;48.768;14.984;2022-09-01T12:20:21;18.10;1.00
29093;DHT22;16167;48.768;14.984;2022-09-01T12:22:56;18.20;1.00
29093;DHT22;16167;48.768;14.984;2022-09-01T12:25:27;18.30;1.00
29093;DHT22;16167;48.768;14.984;2022-09-01T12:27:57;18.40;1.00
29093;DHT22;16167;48.768;14.984;2022-09-01T12:30:26;18.50;1.00
29093;DHT22;16167;48.768;14.984;2022-09-01T12:32:54;18.60;1.00
29093;DHT22;16167;48.768;14.984;2022-09-01T12:35:44;18.80;1.00
29093;DHT22;16167;48.768;14.984;2022-09-01T12:38:28;18.90;1.00
29093;DHT22;16167;48.768;14.984;2022-09-01T12:40:58;18.90;1.00
29093;DHT22;16167;48.768;14.984;2022-09-01T12:43:30;19.00;1.00
29093;DHT22;16167;48.768;14.984;2022-09-01T12:45:59;19.00;1.00
29093;DHT22;16167;48.768;14.984;2022-09-01T12:48:32;19.10;1.00
29093;DHT22;16167;48.768;14.984;2022-09-01T12:51:02;19.10;1.00
29093;DHT22;16167;48.768;14.984;2022-09-01T12:53:32;19.20;1.00
29093;DHT22;16167;48.768;14.984;2022-09-01T12:56:19;19.20;1.00
29093;DHT22;16167;48.768;14.984;2022-09-01T12:58:50;19.30;1.00
29093;DHT22;16167;48.768;14.984;2022-09-01T13:01:26;19.40;1.00
29093;DHT22;16167;48.768;14.984;2022-09-01T13:04:25;19.40;1.00
29093;DHT22;16167;48.768;14.984;2022-09-01T13:06:59;19.50;1.00
29093;DHT22;16167;48.768;14.984;2022-09-01T13:09:27;19.50;1.00
29093;DHT22;16167;48.768;14.984;2022-09-01T13:12:11;19.60;1.00
29093;DHT22;16167;48.768;14.984;2022-09-01T13:14:39;19.60;1.00
29093;DHT22;16167;48.768;14.984;2022-09-01T13:17:07;19.60;1.00
29093;DHT22;16167;48.768;14.984;2022-09-01T13:19:40;19.60;1.00
29093;DHT22;16167;48.768;14.984;2022-09-01T13:22:09;19.60;1.00
29093;DHT22;16167;48.768;14.984;2022-09-01T13:24:37;19.50;1.00
29093;DHT22;16167;48.768;14.984;2022-09-01T13:27:05;19.50;1.00
29093;DHT22;16167;48.768;14.984;2022-09-01T13:29:51;19.60;1.00
29093;DHT22;16167;48.768;14.984;2022-09-01T13:32:21;19.60;1.00
29093;DHT22;16167;48.768;14.984;2022-09-01T13:34:51;19.70;1.00
29093;DHT22;16167;48.768;14.984;2022-09-01T13:37:20;19.70;1.00
29093;DHT22;16167;48.768;14.984;2022-09-01T13:39:49;19.80;1.00
29093;DHT22;16167;48.768;14.984;2022-09-01T13:42:17;19.90;1.00
29093;DHT22;16167;48.768;14.984;2022-09-01T13:44:46;20.00;1.00
29093;DHT22;16167;48.768;14.984;2022-09-01T13:47:21;20.00;1.00
29093;DHT22;16167;48.768;14.984;2022-09-01T13:49:56;20.00;1.00
29093;DHT22;16167;48.768;14.984;2022-09-01T13:52:34;19.90;1.00
29093;DHT22;16167;48.768;14.984;2022-09-01T13:55:03;19.80;1.00
29093;DHT22;16167;48.768;14.984;2022-09-01T13:57:31;19.70;1.00
29093;DHT22;16167;48.768;14.984;2022-09-01T14:00:05;19.50;1.00
29093;DHT22;16167;48.768;14.984;2022-09-01T14:02:38;19.30;1.00
29093;DHT22;16167;48.768;14.984;2022-09-01T14:05:07;19.10;1.00
29093;DHT22;16167;48.768;14.984;2022-09-01T14:07:35;19.00;1.00
29093;DHT22;16167;48.768;14.984;2022-09-01T14:10:04;18.80;1.00
29093;DHT22;16167;48.768;14.984;2022-09-01T14:12:33;18.70;1.00
29093;DHT22;16167;48.768;14.984;2022-09-01T14:15:01;18.50;1.00
29093;DHT22;16167;48.768;14.984;2022-09-01T14:17:43;18.40;1.00
29093;DHT22;16167;48.768;14.984;2022-09-01T14:20:14;18.30;1.00
29093;DHT22;16167;48.768;14.984;2022-09-01T14:22:44;18.20;1.00
29093;DHT22;16167;48.768;14.984;2022-09-01T14:25:13;18.10;1.00
29093;DHT22;16167;48.768;14.984;2022-09-01T14:27:42;18.00;1.00
29093;DHT22;16167;48.768;14.984;2022-09-01T14:30:13;17.90;1.00
29093;DHT22;16167;48.768;14.984;2022-09-01T14:32:43;17.90;1.00
29093;DHT22;16167;48.768;14.984;2022-09-01T14:35:12;17.80;1.00
29093;DHT22;16167;48.768;14.984;2022-09-01T14:37:40;17.70;1.00
29093;DHT22;16167;48.768;14.984;2022-09-01T14:40:10;17.70;1.00
29093;DHT22;16167;48.768;14.984;2022-09-01T14:42:44;17.70;1.00
29093;DHT22;16167;48.768;14.984;2022-09-01T14:45:16;17.60;1.00
29093;DHT22;16167;48.768;14.984;2022-09-01T14:47:47;17.60;1.00
29093;DHT22;16167;48.768;14.984;2022-09-01T14:50:16;17.60;1.00
29093;DHT22;16167;48.768;14.984;2022-09-01T14:52:52;17.60;1.00
29093;DHT22;16167;48.768;14.984;2022-09-01T14:55:22;17.50;1.00
29093;DHT22;16167;48.768;14.984;2022-09-01T14:57:51;17.60;1.00
29093;DHT22;16167;48.768;14.984;2022-09-01T15:00:22;17.60;1.00
29093;DHT22;16167;48.768;14.984;2022-09-01T15:02:54;17.60;1.00
29093;DHT22;16167;48.768;14.984;2022-09-01T15:05:23;17.70;1.00
29093;DHT22;16167;48.768;14.984;2022-09-01T15:07:51;17.70;1.00
29093;DHT22;16167;48.768;14.984;2022-09-01T15:10:22;17.80;1.00
29093;DHT22;16167;48.768;14.984;2022-09-01T15:12:53;17.80;1.00
29093;DHT22;16167;48.768;14.984;2022-09-01T15:15:21;17.90;1.00
29093;DHT22;16167;48.768;14.984;2022-09-01T15:17:49;17.90;1.00
29093;DHT22;16167;48.768;14.984;2022-09-01T15:20:21;17.90;1.00
29093;DHT22;16167;48.768;14.984;2022-09-01T15:23:08;18.00;1.00
29093;DHT22;16167;48.768;14.984;2022-09-01T15:25:36;18.10;1.00
29093;DHT22;16167;48.768;14.984;2022-09-01T15:28:05;18.10;1.00
29093;DHT22;16167;48.768;14.984;2022-09-01T15:30:33;18.30;1.00
29093;DHT22;16167;48.768;14.984;2022-09-01T15:33:03;18.40;1.00
29093;DHT22;16167;48.768;14.984;2022-09-01T15:35:33;18.40;1.00
29093;DHT22;16167;48.768;14.984;2022-09-01T15:38:02;18.40;1.00
29093;DHT22;16167;48.768;14.984;2022-09-01T15:40:30;18.30;1.00
29093;DHT22;16167;48.768;14.984;2022-09-01T15:42:59;18.20;1.00
29093;DHT22;16167;48.768;14.984;2022-09-01T15:45:27;18.20;1.00
29093;DHT22;16167;48.768;14.984;2022-09-01T15:47:55;18.10;1.00
29093;DHT22;16167;48.768;14.984;2022-09-01T15:50:25;18.00;1.00
29093;DHT22;16167;48.768;14.984;2022-09-01T15:52:57;18.00;1.00
29093;DHT22;16167;48.768;14.984;2022-09-01T15:55:27;17.90;1.00
29093;DHT22;16167;48.768;14.984;2022-09-01T15:57:55;17.80;1.00
29093;DHT22;16167;48.768;14.984;2022-09-01T16:00:25;17.70;1.00